Time;durP1;ratioP1;P1;durP2;ratioP2;P2;SDS_P1;SDS_P2;PMS_P1;PMS_P2;Temp;Humidity;BMP_temperature;BMP_pressure;BME280_temperature;BME280_humidity;BME280_pressure;Samples;Min_cycle;Max_cycle;Signal;HPM_P1;HPM_P2
2022/01/19 00:01:23;;;;;;;33.03;17.70;;;4.50;99.90;;;;;;5060240;28;20036;-75
2022/01/19 00:03:49;;;;;;;35.10;18.05;;;4.50;99.90;;;;;;5090771;28;20037;-75
2022/01/19 00:06:15;;;;;;;33.63;18.45;;;4.50;99.90;;;;;;5040131;28;20036;-75
2022/01/19 00:08:41;;;;;;;30.73;18.25;;;4.40;99.90;;;;;;5062761;28;20064;-75
2022/01/19 00:11:07;;;;;;;28.88;16.48;;;4.50;99.90;;;;;;5062067;28;20111;-76
2022/01/19 00:13:33;;;;;;;28.85;15.80;;;4.40;99.90;;;;;;5056528;28;20477;-75
2022/01/19 00:15:58;;;;;;;34.03;17.75;;;4.40;99.90;;;;;;5042024;28;20033;-77
2022/01/19 00:18:25;;;;;;;31.80;16.75;;;4.30;99.90;;;;;;5062722;28;20179;-76
2022/01/19 00:20:51;;;;;;;;;;;4.40;99.90;;;;;;5058152;28;20039;-76
2022/01/19 00:23:18;;;;;;;30.35;15.85;;;4.30;99.90;;;;;;5043443;28;19974;-76
2022/01/19 00:25:46;;;;;;;30.58;16.10;;;4.40;99.90;;;;;;5052414;28;20123;-76
2022/01/19 00:28:12;;;;;;;28.10;15.13;;;4.30;99.90;;;;;;5033357;28;20068;-76
2022/01/19 00:30:38;;;;;;;31.80;14.75;;;4.30;99.90;;;;;;5065563;28;20048;-76
2022/01/19 00:33:04;;;;;;;;;;;4.30;99.90;;;;;;5054424;28;20037;-76
2022/01/19 00:35:30;;;;;;;31.73;15.00;;;4.30;99.90;;;;;;5050365;28;20381;-75
2022/01/19 00:37:56;;;;;;;29.05;14.43;;;4.30;99.90;;;;;;5076636;28;20127;-76
2022/01/19 00:40:21;;;;;;;33.35;15.32;;;4.20;99.90;;;;;;5048367;28;20185;-75
2022/01/19 00:42:49;;;;;;;30.42;14.27;;;4.30;99.90;;;;;;5041581;28;20388;-75
2022/01/19 00:45:15;;;;;;;29.13;14.82;;;4.30;99.90;;;;;;5062149;28;20078;-76
2022/01/19 00:47:42;;;;;;;25.38;14.23;;;4.20;99.90;;;;;;5048161;28;20101;-75
2022/01/19 00:50:11;;;;;;;27.65;14.85;;;4.20;99.90;;;;;;5090121;28;20036;-76
2022/01/19 00:52:37;;;;;;;29.35;14.60;;;4.20;99.90;;;;;;5062290;28;20072;-75
2022/01/19 00:55:08;;;;;;;26.83;14.88;;;4.10;99.90;;;;;;5065255;28;20075;-76
2022/01/19 00:57:35;;;;;;;30.65;15.52;;;4.10;99.90;;;;;;5050919;28;20052;-76
2022/01/19 01:00:00;;;;;;;31.13;16.02;;;4.20;99.90;;;;;;5097429;28;20449;-75
2022/01/19 01:02:26;;;;;;;33.15;17.02;;;4.10;99.90;;;;;;5042960;28;20060;-76
2022/01/19 01:04:52;;;;;;;31.35;16.38;;;4.10;99.90;;;;;;5052466;28;20040;-76
2022/01/19 01:07:18;;;;;;;30.70;16.77;;;4.10;99.90;;;;;;5043829;28;20102;-75
2022/01/19 01:09:44;;;;;;;30.65;17.30;;;4.10;99.90;;;;;;5068332;28;20290;-75
2022/01/19 01:12:20;;;;;;;30.42;17.00;;;4.10;99.90;;;;;;5041152;28;20040;-75
2022/01/19 01:20:33;;;;;;;34.55;18.15;;;4.10;99.90;;;;;;5034554;28;20045;-75
2022/01/19 01:22:59;;;;;;;36.67;18.65;;;4.10;99.90;;;;;;5045510;28;20055;-75
2022/01/19 01:25:25;;;;;;;32.97;18.15;;;4.10;99.90;;;;;;5041112;28;20037;-75
2022/01/19 01:27:51;;;;;;;42.08;19.98;;;4.10;99.90;;;;;;5057696;28;20033;-75
2022/01/19 01:30:16;;;;;;;39.03;19.20;;;4.00;99.90;;;;;;5061783;28;20041;-75
2022/01/19 01:32:42;;;;;;;36.60;19.88;;;4.10;99.90;;;;;;5040636;28;20104;-75
2022/01/19 01:35:08;;;;;;;37.88;19.95;;;4.10;99.90;;;;;;5041702;28;20048;-75
2022/01/19 01:37:34;;;;;;;36.22;18.42;;;4.10;99.90;;;;;;5041364;28;20044;-75
2022/01/19 01:40:01;;;;;;;37.58;18.85;;;4.10;99.90;;;;;;5035220;28;20036;-75
2022/01/19 01:42:27;;;;;;;39.13;18.60;;;4.10;99.90;;;;;;5042983;28;20033;-75
2022/01/19 01:44:56;;;;;;;40.63;18.75;;;4.00;99.90;;;;;;5080168;28;20439;-75
2022/01/19 01:47:22;;;;;;;39.70;19.08;;;4.10;99.90;;;;;;5060169;28;20138;-75
2022/01/19 01:55:11;;;;;;;43.33;19.67;;;4.10;99.90;;;;;;5095184;28;20119;-75
2022/01/19 01:57:37;;;;;;;37.80;19.23;;;4.00;99.90;;;;;;5046327;28;20080;-75
2022/01/19 02:00:10;;;;;;;44.10;20.27;;;4.10;99.90;;;;;;5062686;28;20064;-75
2022/01/19 02:02:36;;;;;;;46.53;21.25;;;4.10;99.90;;;;;;5062365;28;20072;-75
2022/01/19 02:05:02;;;;;;;;;;;4.10;99.90;;;;;;5056107;28;20044;-75
2022/01/19 02:08:36;;;;;;;43.40;21.33;;;4.10;99.90;;;;;;5056964;28;19917;-75
2022/01/19 02:24:15;;;;;;;45.55;21.40;;;4.20;99.90;;;;;;5060117;28;20109;-75
2022/01/19 02:30:15;;;;;;;48.35;21.25;;;4.20;99.90;;;;;;5045034;28;20048;-75
2022/01/19 02:40:30;;;;;;;42.95;20.33;;;4.30;99.90;;;;;;5061799;28;20142;-75
2022/01/19 02:50:58;;;;;;;49.60;20.95;;;4.40;99.90;;;;;;5063589;28;20044;-80
2022/01/19 02:53:24;;;;;;;43.92;21.92;;;4.40;99.90;;;;;;5061806;28;20063;-79
2022/01/19 02:55:50;;;;;;;46.22;21.33;;;4.40;99.90;;;;;;5041647;28;20136;-79
2022/01/19 02:58:19;;;;;;;43.95;19.10;;;4.40;99.90;;;;;;5058510;28;20102;-79
2022/01/19 03:08:43;;;;;;;53.70;23.73;;;4.30;99.90;;;;;;5049405;28;20127;-79
2022/01/19 03:09:18;;;;;;;59.22;23.85;;;4.40;99.90;;;;;;5058442;28;20085;-79
2022/01/19 03:11:43;;;;;;;48.45;20.80;;;4.30;99.90;;;;;;5062131;28;20072;-78
2022/01/19 03:14:09;;;;;;;47.90;21.35;;;4.30;99.90;;;;;;5075907;28;20168;-78
2022/01/19 03:16:35;;;;;;;47.13;22.60;;;4.30;99.90;;;;;;5055706;28;20032;-79
2022/01/19 03:19:02;;;;;;;50.30;22.23;;;4.30;99.90;;;;;;5069205;28;20032;-78
2022/01/19 03:21:27;;;;;;;54.65;23.65;;;4.20;99.90;;;;;;5049281;28;20062;-78
2022/01/19 03:23:53;;;;;;;54.83;23.65;;;4.30;99.90;;;;;;5064418;28;20476;-78
2022/01/19 03:26:19;;;;;;;57.90;22.27;;;4.30;99.90;;;;;;5047418;28;20136;-78
2022/01/19 03:28:44;;;;;;;60.38;24.38;;;4.30;99.90;;;;;;5060541;28;20123;-79
2022/01/19 03:31:10;;;;;;;54.78;21.23;;;4.20;99.90;;;;;;5059441;28;20071;-78
2022/01/19 03:33:36;;;;;;;54.30;22.70;;;4.10;99.90;;;;;;5023090;28;20037;-79
2022/01/19 03:36:02;;;;;;;53.58;20.98;;;4.20;99.90;;;;;;5063333;28;20096;-78
2022/01/19 03:38:28;;;;;;;61.60;22.90;;;4.10;99.90;;;;;;5070956;28;20040;-79
2022/01/19 03:40:54;;;;;;;55.83;22.65;;;4.10;99.90;;;;;;5052741;28;20499;-78
2022/01/19 03:43:19;;;;;;;48.78;20.15;;;4.20;99.90;;;;;;5056491;28;20037;-79
2022/01/19 03:45:51;;;;;;;53.72;22.02;;;4.10;99.90;;;;;;5058008;28;20051;-79
2022/01/19 03:50:59;;;;;;;54.58;21.48;;;4.10;99.90;;;;;;5052758;28;20049;-78
2022/01/19 03:53:25;;;;;;;53.97;22.17;;;4.10;99.90;;;;;;5058883;28;20154;-78
2022/01/19 03:55:51;;;;;;;45.33;21.33;;;4.10;99.90;;;;;;5063154;28;20053;-79
2022/01/19 03:58:16;;;;;;;43.83;19.58;;;4.10;99.90;;;;;;5037171;28;20040;-79
2022/01/19 04:00:44;;;;;;;49.73;22.07;;;4.10;99.90;;;;;;5063489;28;20040;-78
2022/01/19 04:03:13;;;;;;;50.00;22.55;;;4.10;99.90;;;;;;5075139;28;20299;-78
2022/01/19 04:05:53;;;;;;;48.65;21.30;;;4.10;99.90;;;;;;5047672;28;20040;-78
2022/01/19 04:08:18;;;;;;;47.92;21.45;;;4.00;99.90;;;;;;5056095;28;20426;-78
2022/01/19 04:10:44;;;;;;;42.83;20.98;;;4.00;99.90;;;;;;5045596;28;20037;-78
2022/01/19 04:13:33;;;;;;;45.55;20.50;;;4.10;99.90;;;;;;5035829;28;20044;-78
2022/01/19 04:15:59;;;;;;;52.28;21.98;;;4.10;99.90;;;;;;5047377;28;20052;-78
2022/01/19 04:18:25;;;;;;;50.20;21.85;;;4.10;99.90;;;;;;5063447;28;20056;-79
2022/01/19 04:20:52;;;;;;;45.72;20.45;;;4.00;99.90;;;;;;5057177;28;20114;-78
2022/01/19 04:23:19;;;;;;;52.60;22.70;;;4.00;99.90;;;;;;5045489;28;20112;-79
2022/01/19 04:25:45;;;;;;;53.42;22.05;;;4.00;99.90;;;;;;5071919;28;20069;-78
2022/01/19 04:28:12;;;;;;;50.88;22.05;;;4.00;99.90;;;;;;5060611;28;20036;-79
2022/01/19 04:30:38;;;;;;;;;;;4.10;99.90;;;;;;5050071;28;20112;-79
2022/01/19 04:33:09;;;;;;;52.08;22.70;;;4.00;99.90;;;;;;5062998;28;19920;-79
2022/01/19 04:35:45;;;;;;;59.80;23.70;;;4.10;99.90;;;;;;5073482;28;20179;-79
2022/01/19 04:44:13;;;;;;;53.05;25.23;;;4.10;99.90;;;;;;5069793;28;20120;-80
2022/01/19 05:07:27;;;;;;;44.97;21.60;;;4.10;99.90;;;;;;5051500;28;20044;-75
2022/01/19 05:15:05;;;;;;;41.15;19.33;;;4.00;99.90;;;;;;5063258;28;20306;-75
2022/01/19 05:17:31;;;;;;;48.67;22.02;;;4.00;99.90;;;;;;5051006;28;20045;-75
2022/01/19 05:19:57;;;;;;;42.30;21.88;;;4.10;99.90;;;;;;5034665;28;20090;-74
2022/01/19 05:22:22;;;;;;;41.63;21.20;;;4.00;99.90;;;;;;5062446;28;20036;-74
2022/01/19 05:24:48;;;;;;;39.95;21.13;;;4.00;99.90;;;;;;5048937;28;20132;-75
2022/01/19 05:27:14;;;;;;;38.25;19.77;;;4.00;99.90;;;;;;5055054;28;20072;-75
2022/01/19 05:29:39;;;;;;;41.33;20.67;;;4.10;99.90;;;;;;5054245;28;20049;-75
2022/01/19 05:32:06;;;;;;;36.28;19.23;;;4.00;99.90;;;;;;5052046;28;20059;-75
2022/01/19 05:34:32;;;;;;;38.33;21.23;;;4.00;99.90;;;;;;5045938;28;20090;-75
2022/01/19 05:36:58;;;;;;;37.30;19.88;;;4.00;99.90;;;;;;5034938;28;20040;-75
2022/01/19 05:39:23;;;;;;;38.30;20.90;;;4.00;99.90;;;;;;5089071;28;20553;-75
2022/01/19 05:41:49;;;;;;;33.20;19.15;;;4.00;99.90;;;;;;5055179;28;20068;-75
2022/01/19 05:44:15;;;;;;;36.53;19.73;;;4.00;99.90;;;;;;5059433;28;20036;-75
2022/01/19 05:46:40;;;;;;;33.67;18.92;;;4.00;99.90;;;;;;5047088;28;20048;-75
2022/01/19 05:49:06;;;;;;;36.33;19.40;;;4.00;99.90;;;;;;5071422;28;20127;-75
2022/01/19 05:51:32;;;;;;;38.47;21.00;;;4.00;99.90;;;;;;5060953;28;20098;-75
2022/01/19 05:53:58;;;;;;;37.92;20.27;;;3.90;99.90;;;;;;5057388;28;20155;-75
2022/01/19 05:56:24;;;;;;;37.40;20.67;;;3.90;99.90;;;;;;5073138;28;20029;-74
2022/01/19 05:58:49;;;;;;;39.08;20.40;;;3.90;99.90;;;;;;5039461;28;20482;-74
2022/01/19 06:01:15;;;;;;;39.95;21.88;;;3.90;99.90;;;;;;5044201;28;20043;-75
2022/01/19 06:03:41;;;;;;;34.60;17.90;;;4.00;99.90;;;;;;5058268;28;20395;-74
2022/01/19 06:06:07;;;;;;;39.83;20.48;;;3.90;99.90;;;;;;5041764;28;20033;-75
2022/01/19 06:08:43;;;;;;;41.20;20.40;;;3.90;99.90;;;;;;5052380;28;20045;-75
2022/01/19 06:11:10;;;;;;;36.65;19.58;;;3.90;99.90;;;;;;5042534;28;20388;-75
2022/01/19 06:13:40;;;;;;;36.35;20.17;;;3.90;99.90;;;;;;5051539;28;20041;-75
2022/01/19 06:16:06;;;;;;;39.35;20.30;;;3.90;99.90;;;;;;5032427;28;20041;-75
2022/01/19 06:18:32;;;;;;;34.97;19.15;;;3.90;99.90;;;;;;5071372;28;20078;-74
2022/01/19 06:20:58;;;;;;;39.80;21.50;;;3.90;99.90;;;;;;5060472;28;20047;-74
2022/01/19 06:23:24;;;;;;;36.92;20.13;;;3.90;99.90;;;;;;5051332;28;20041;-74
2022/01/19 06:25:50;;;;;;;38.47;20.73;;;3.80;99.90;;;;;;5061305;28;20427;-75
2022/01/19 06:28:15;;;;;;;32.55;18.90;;;3.90;99.90;;;;;;5060815;28;20044;-75
2022/01/19 06:30:41;;;;;;;36.67;20.40;;;3.90;99.90;;;;;;5058762;28;20040;-75
2022/01/19 06:33:07;;;;;;;38.80;21.83;;;3.90;99.90;;;;;;5042343;28;20037;-75
2022/01/19 06:35:33;;;;;;;36.97;21.75;;;3.90;99.90;;;;;;5065916;28;20407;-75
2022/01/19 06:37:59;;;;;;;36.00;20.92;;;3.90;99.90;;;;;;5039650;28;20058;-75
2022/01/19 06:40:29;;;;;;;41.08;22.25;;;3.90;99.90;;;;;;5059168;28;20062;-75
2022/01/19 06:42:55;;;;;;;38.08;20.30;;;3.90;99.90;;;;;;5058993;28;20044;-75
2022/01/19 06:45:22;;;;;;;37.30;20.10;;;3.90;99.90;;;;;;5036481;28;20123;-75
2022/01/19 06:47:48;;;;;;;36.38;20.55;;;4.00;99.90;;;;;;5036222;28;20052;-75
2022/01/19 06:50:19;;;;;;;35.92;18.85;;;3.80;99.90;;;;;;5042520;28;20055;-75
2022/01/19 06:52:45;;;;;;;33.10;18.55;;;3.90;99.90;;;;;;5036432;28;20040;-75
2022/01/19 06:55:11;;;;;;;39.88;19.77;;;3.90;99.90;;;;;;5056921;28;20100;-75
2022/01/19 06:57:36;;;;;;;37.63;22.38;;;3.80;99.90;;;;;;5062280;28;20076;-75
2022/01/19 07:00:05;;;;;;;42.78;21.75;;;3.90;99.90;;;;;;5059878;28;20040;-75
2022/01/19 07:02:30;;;;;;;33.13;18.35;;;3.90;99.90;;;;;;5065055;28;20040;-74
2022/01/19 07:04:57;;;;;;;38.15;22.27;;;4.00;99.90;;;;;;5050819;28;20040;-74
2022/01/19 07:07:22;;;;;;;38.53;22.42;;;3.90;99.90;;;;;;5046507;28;20041;-74
2022/01/19 07:09:49;;;;;;;35.60;20.65;;;3.90;99.90;;;;;;5067958;28;20075;-74
2022/01/19 07:12:15;;;;;;;41.15;21.98;;;3.90;99.90;;;;;;5046165;28;20087;-75
2022/01/19 07:14:42;;;;;;;39.63;21.95;;;3.90;99.90;;;;;;5068693;28;20131;-74
2022/01/19 07:17:07;;;;;;;;;;;4.00;99.90;;;;;;5069894;28;20098;-75
2022/01/19 07:19:33;;;;;;;36.15;20.67;;;3.90;99.90;;;;;;5069851;28;19920;-75
2022/01/19 07:21:59;;;;;;;35.85;21.65;;;3.90;99.90;;;;;;5052973;28;20036;-75
2022/01/19 07:24:25;;;;;;;41.53;20.17;;;3.90;99.90;;;;;;5051051;28;20067;-75
2022/01/19 07:26:50;;;;;;;37.63;21.17;;;3.90;99.90;;;;;;5048998;28;20049;-74
2022/01/19 07:29:16;;;;;;;37.53;20.95;;;3.90;99.90;;;;;;5060065;28;20063;-74
2022/01/19 07:31:42;;;;;;;37.20;21.20;;;4.00;99.90;;;;;;5047239;28;20059;-75
2022/01/19 07:34:08;;;;;;;41.53;22.42;;;3.90;99.90;;;;;;5069831;28;20063;-74
2022/01/19 07:36:34;;;;;;;38.33;21.13;;;4.00;99.90;;;;;;5059089;28;20084;-74
2022/01/19 07:39:00;;;;;;;40.30;22.13;;;3.90;99.90;;;;;;5064783;28;20425;-74
2022/01/19 07:41:26;;;;;;;38.63;22.30;;;3.90;99.90;;;;;;5067935;28;20286;-74
2022/01/19 07:43:52;;;;;;;34.97;19.77;;;3.90;99.90;;;;;;5068305;28;20476;-77
2022/01/19 07:46:17;;;;;;;41.90;20.77;;;3.90;99.90;;;;;;5060833;28;20044;-77
2022/01/19 07:48:44;;;;;;;35.25;20.63;;;3.90;99.90;;;;;;5060176;28;20049;-76
2022/01/19 07:51:09;;;;;;;31.50;19.27;;;3.90;99.90;;;;;;5054533;28;20044;-77
2022/01/19 07:53:36;;;;;;;39.40;21.67;;;3.90;99.90;;;;;;5068012;28;20570;-76
2022/01/19 07:56:04;;;;;;;39.65;21.50;;;3.90;99.90;;;;;;5044752;28;20171;-80
2022/01/19 07:58:29;;;;;;;42.75;23.35;;;3.90;99.90;;;;;;5066995;28;20350;-79
2022/01/19 08:00:55;;;;;;;40.10;22.75;;;3.90;99.90;;;;;;5070820;28;20044;-79
2022/01/19 08:03:21;;;;;;;38.40;22.88;;;3.90;99.90;;;;;;5070731;28;20090;-79
2022/01/19 08:05:47;;;;;;;39.63;22.65;;;4.00;99.90;;;;;;5052828;28;20045;-78
2022/01/19 08:08:13;;;;;;;39.30;21.38;;;4.00;99.90;;;;;;5054492;28;20075;-78
2022/01/19 08:10:42;;;;;;;43.97;22.52;;;4.00;99.90;;;;;;5064536;28;20076;-74
2022/01/19 08:13:14;;;;;;;46.58;23.13;;;4.00;99.90;;;;;;5029234;28;20033;-73
2022/01/19 08:15:40;;;;;;;45.58;25.42;;;4.00;99.90;;;;;;5059922;28;20044;-73
2022/01/19 08:18:06;;;;;;;41.78;22.83;;;4.10;99.90;;;;;;5033048;28;20048;-74
2022/01/19 08:20:32;;;;;;;41.95;23.58;;;4.10;99.90;;;;;;5046790;28;20047;-73
2022/01/19 08:22:57;;;;;;;43.95;22.65;;;4.10;99.90;;;;;;5057925;28;20078;-73
2022/01/19 08:25:23;;;;;;;42.22;23.77;;;4.10;99.90;;;;;;5046692;28;20060;-73
2022/01/19 08:27:49;;;;;;;43.95;23.35;;;4.20;99.90;;;;;;5060452;28;20044;-73
2022/01/19 08:30:16;;;;;;;44.47;24.45;;;4.20;99.90;;;;;;5057328;28;20040;-73
2022/01/19 08:32:42;;;;;;;47.78;24.77;;;4.20;99.90;;;;;;5076004;28;20392;-73
2022/01/19 08:35:09;;;;;;;44.20;23.90;;;4.30;99.90;;;;;;5049688;28;20055;-73
2022/01/19 08:37:35;;;;;;;49.53;26.00;;;4.30;99.90;;;;;;5069824;28;20051;-74
2022/01/19 08:40:03;;;;;;;50.67;26.55;;;4.30;99.90;;;;;;5069513;28;20036;-73
2022/01/19 08:42:29;;;;;;;49.67;25.02;;;4.40;99.90;;;;;;5043784;28;20048;-73
2022/01/19 08:44:55;;;;;;;46.70;25.40;;;4.40;99.90;;;;;;5067487;28;20525;-73
2022/01/19 08:47:22;;;;;;;48.30;25.38;;;4.50;99.90;;;;;;5045880;28;20453;-73
2022/01/19 08:49:48;;;;;;;50.08;27.10;;;4.50;99.90;;;;;;5051774;28;20044;-73
2022/01/19 08:52:16;;;;;;;51.92;27.10;;;4.50;99.90;;;;;;5097090;28;20051;-74
2022/01/19 08:54:41;;;;;;;50.83;27.70;;;4.60;99.90;;;;;;5049200;28;20044;-73
2022/01/19 08:57:07;;;;;;;45.33;25.52;;;4.60;99.90;;;;;;5041218;28;20480;-74
2022/01/19 08:59:33;;;;;;;49.15;26.35;;;4.70;99.90;;;;;;5063502;28;20506;-74
2022/01/19 09:01:59;;;;;;;48.05;25.25;;;4.70;99.90;;;;;;5047913;28;20052;-74
2022/01/19 09:04:25;;;;;;;47.80;26.85;;;4.70;99.90;;;;;;5052947;28;20059;-74
2022/01/19 09:06:53;;;;;;;48.50;26.45;;;4.70;99.90;;;;;;5076219;28;20068;-74
2022/01/19 09:09:19;;;;;;;48.92;26.35;;;4.70;99.90;;;;;;5052594;28;20045;-73
2022/01/19 09:11:45;;;;;;;51.55;26.63;;;4.70;99.90;;;;;;5057645;28;20047;-73
2022/01/19 09:14:11;;;;;;;49.72;27.27;;;4.70;99.90;;;;;;5045771;28;20118;-75
2022/01/19 09:16:37;;;;;;;48.05;27.75;;;4.70;99.90;;;;;;5048919;28;20131;-74
2022/01/19 09:19:06;;;;;;;46.83;26.20;;;4.80;99.90;;;;;;5036548;28;20052;-73
2022/01/19 09:21:33;;;;;;;52.35;27.17;;;4.80;99.90;;;;;;5042111;28;20051;-74
2022/01/19 09:23:59;;;;;;;48.83;26.58;;;4.90;99.90;;;;;;5052845;28;20043;-79
2022/01/19 09:26:25;;;;;;;49.60;29.27;;;4.90;99.90;;;;;;5050613;28;20361;-79
2022/01/19 09:28:51;;;;;;;54.22;28.45;;;4.90;99.90;;;;;;5036532;28;20838;-79
2022/01/19 09:31:18;;;;;;;46.75;26.95;;;5.00;99.90;;;;;;5055253;28;20048;-79
2022/01/19 09:33:52;;;;;;;49.20;26.60;;;5.00;99.90;;;;;;5071068;28;20048;-84
2022/01/19 09:36:35;;;;;;;49.95;27.25;;;5.00;99.90;;;;;;5066060;28;20044;-79
2022/01/19 09:39:03;;;;;;;51.20;27.65;;;4.90;99.90;;;;;;5064208;28;20036;-79
2022/01/19 09:41:29;;;;;;;45.15;26.83;;;4.90;99.90;;;;;;5064733;28;20051;-78
2022/01/19 09:43:55;;;;;;;51.95;28.27;;;4.90;99.90;;;;;;5060392;28;20455;-79
2022/01/19 09:46:21;;;;;;;;;;;4.90;99.90;;;;;;5073167;28;20032;-79
2022/01/19 09:48:47;;;;;;;51.50;27.98;;;5.00;99.90;;;;;;5038281;28;20383;-78
2022/01/19 09:51:14;;;;;;;51.58;28.13;;;5.00;99.90;;;;;;5052391;28;20044;-78
2022/01/19 09:53:41;;;;;;;52.78;27.27;;;5.00;99.90;;;;;;5052552;28;20036;-77
2022/01/19 09:56:07;;;;;;;51.67;27.67;;;5.00;99.90;;;;;;5067001;28;20468;-77
2022/01/19 09:58:33;;;;;;;51.15;27.92;;;5.00;99.90;;;;;;5030143;28;20049;-77
2022/01/19 10:00:58;;;;;;;54.53;29.00;;;4.90;99.90;;;;;;5089714;28;20150;-77
2022/01/19 10:03:27;;;;;;;51.58;27.55;;;5.00;99.90;;;;;;5060859;28;20040;-77
2022/01/19 10:06:07;;;;;;;55.47;28.58;;;4.90;99.90;;;;;;5065422;28;20302;-76
2022/01/19 10:08:56;;;;;;;55.63;28.77;;;4.90;99.90;;;;;;5069036;28;20047;-76
2022/01/19 10:11:39;;;;;;;54.63;29.30;;;4.90;99.90;;;;;;5041788;28;20373;-76
2022/01/19 10:17:08;;;;;;;50.28;28.05;;;4.80;99.90;;;;;;5067903;28;20139;-80
2022/01/19 10:19:35;;;;;;;52.78;29.08;;;4.80;99.90;;;;;;5080049;28;20037;-78
2022/01/19 10:22:14;;;;;;;48.75;26.70;;;4.90;99.90;;;;;;5066288;28;20579;-78
2022/01/19 10:24:57;;;;;;;52.72;28.38;;;4.80;99.90;;;;;;5065133;28;20037;-78
2022/01/19 10:27:42;;;;;;;53.38;27.38;;;4.80;99.90;;;;;;5062067;28;20052;-77
2022/01/19 10:30:08;;;;;;;50.17;28.30;;;4.80;99.90;;;;;;5093825;28;20120;-80
2022/01/19 10:32:53;;;;;;;52.92;29.83;;;4.80;99.90;;;;;;5053684;28;20773;-77
2022/01/19 10:35:24;;;;;;;51.30;28.45;;;4.90;99.90;;;;;;5064042;28;20099;-77
2022/01/19 10:38:14;;;;;;;47.58;28.35;;;4.90;99.90;;;;;;5090582;28;20468;-78
2022/01/19 10:40:43;;;;;;;50.53;28.60;;;4.90;99.90;;;;;;5062948;28;20119;-79
2022/01/19 10:43:46;;;;;;;52.55;28.33;;;4.90;99.90;;;;;;5060741;28;20032;-79
2022/01/19 10:46:34;;;;;;;55.90;31.20;;;5.00;99.90;;;;;;5057450;28;20111;-79
2022/01/19 10:49:04;;;;;;;49.83;29.58;;;5.00;99.90;;;;;;5067896;28;20049;-77
2022/01/19 10:51:37;;;;;;;47.42;27.85;;;5.00;99.90;;;;;;5077029;28;20548;-77
2022/01/19 10:54:22;;;;;;;58.25;30.67;;;5.00;99.90;;;;;;5066852;28;20041;-77
2022/01/19 10:56:54;;;;;;;55.50;30.17;;;5.00;99.90;;;;;;5065575;28;20127;-76
2022/01/19 10:59:25;;;;;;;51.20;28.67;;;5.00;99.90;;;;;;5050774;28;20037;-77
2022/01/19 11:01:53;;;;;;;49.92;28.27;;;5.00;99.90;;;;;;5065201;28;20044;-77
2022/01/19 11:04:33;;;;;;;50.20;28.67;;;5.00;99.90;;;;;;5048064;28;20040;-77
2022/01/19 11:07:03;;;;;;;57.15;30.83;;;5.10;99.90;;;;;;5046976;28;20048;-77
2022/01/19 11:09:30;;;;;;;50.75;29.70;;;5.10;99.90;;;;;;5077520;28;20047;-78
2022/01/19 11:12:02;;;;;;;56.78;29.35;;;5.10;99.90;;;;;;5067830;28;20040;-78
2022/01/19 11:14:28;;;;;;;51.33;30.13;;;5.20;99.90;;;;;;5049949;28;20040;-77
2022/01/19 11:16:54;;;;;;;53.30;28.85;;;5.20;99.90;;;;;;5063274;28;20519;-77
2022/01/19 11:19:20;;;;;;;51.45;28.88;;;5.20;99.90;;;;;;5067804;28;20021;-78
2022/01/19 11:21:46;;;;;;;;;;;5.30;99.90;;;;;;5034244;28;20517;-77
2022/01/19 11:24:24;;;;;;;49.72;28.35;;;5.30;99.90;;;;;;5066830;28;19991;-78
2022/01/19 11:26:53;;;;;;;50.80;29.50;;;5.40;99.90;;;;;;5087056;28;20045;-78
2022/01/19 11:29:21;;;;;;;52.88;30.20;;;5.40;99.90;;;;;;5052416;28;20048;-78
2022/01/19 11:31:49;;;;;;;56.67;30.20;;;5.50;99.90;;;;;;5049044;28;20082;-78
2022/01/19 11:34:35;;;;;;;50.92;29.98;;;5.50;99.90;;;;;;5067712;28;20455;-78
2022/01/19 11:37:02;;;;;;;55.72;31.75;;;5.70;99.90;;;;;;5076087;28;20062;-78
2022/01/19 11:39:30;;;;;;;;;;;5.70;99.90;;;;;;5063063;28;20048;-81
2022/01/19 11:42:03;;;;;;;52.83;30.15;;;5.70;99.90;;;;;;5061144;28;19916;-78
2022/01/19 11:44:31;;;;;;;55.15;31.75;;;5.80;99.90;;;;;;5045217;28;20141;-78
2022/01/19 11:47:16;;;;;;;57.17;31.73;;;5.80;99.90;;;;;;5044934;28;20139;-79
2022/01/19 11:49:51;;;;;;;51.40;32.10;;;5.90;99.90;;;;;;5065244;28;20076;-77
2022/01/19 11:52:19;;;;;;;53.03;30.77;;;5.90;99.90;;;;;;5048486;28;20036;-77
2022/01/19 11:54:47;;;;;;;54.67;31.27;;;5.90;99.90;;;;;;5056551;28;20043;-77
2022/01/19 11:57:26;;;;;;;50.03;30.17;;;5.90;99.90;;;;;;5088305;28;20071;-75
2022/01/19 12:00:05;;;;;;;55.47;31.17;;;5.90;99.90;;;;;;5061297;28;20036;-77
2022/01/19 12:02:33;;;;;;;53.35;30.35;;;5.90;99.90;;;;;;5068043;28;20048;-78
2022/01/19 12:04:58;;;;;;;53.67;30.77;;;5.90;99.90;;;;;;5067736;28;20045;-75
2022/01/19 12:07:38;;;;;;;53.83;30.43;;;5.90;99.90;;;;;;5063717;28;20051;-76
2022/01/19 12:10:08;;;;;;;49.67;30.13;;;5.90;99.90;;;;;;5066039;28;20040;-76
2022/01/19 12:12:40;;;;;;;52.08;30.10;;;5.90;99.90;;;;;;5060768;28;20043;-76
2022/01/19 12:15:09;;;;;;;53.03;30.42;;;5.80;99.90;;;;;;5043133;28;20057;-76
2022/01/19 12:17:55;;;;;;;52.60;30.15;;;5.80;99.90;;;;;;5062378;28;20056;-77
2022/01/19 12:20:46;;;;;;;48.55;28.55;;;5.70;99.90;;;;;;5086570;28;20480;-76
2022/01/19 12:23:30;;;;;;;52.53;31.27;;;5.70;99.90;;;;;;5060312;28;20040;-76
2022/01/19 12:25:57;;;;;;;51.50;29.85;;;5.70;99.90;;;;;;5051255;28;20150;-76
2022/01/19 12:28:46;;;;;;;51.47;29.35;;;5.70;99.90;;;;;;5065312;28;20116;-76
2022/01/19 12:31:24;;;;;;;54.25;30.08;;;5.70;99.90;;;;;;5066131;28;20040;-78
2022/01/19 12:34:10;;;;;;;50.80;28.63;;;5.70;99.90;;;;;;5096777;28;20059;-79
2022/01/19 12:36:58;;;;;;;51.50;29.92;;;5.70;99.90;;;;;;5093269;28;20084;-76
2022/01/19 12:39:26;;;;;;;53.28;28.85;;;5.70;99.90;;;;;;5069458;28;20040;-81
2022/01/19 12:42:17;;;;;;;58.38;32.03;;;5.70;99.90;;;;;;5053428;28;20094;-77
2022/01/19 12:44:53;;;;;;;52.65;27.75;;;5.70;99.90;;;;;;5046977;28;20032;-80
2022/01/19 12:47:24;;;;;;;49.58;27.55;;;5.70;99.90;;;;;;5049559;28;20052;-78
2022/01/19 12:50:10;;;;;;;52.97;28.17;;;5.60;99.90;;;;;;5051985;28;20045;-78
2022/01/19 12:52:47;;;;;;;51.70;28.98;;;5.70;99.90;;;;;;5089799;28;20045;-79
2022/01/19 12:55:26;;;;;;;53.35;28.05;;;5.80;99.90;;;;;;5064313;28;20043;-79
2022/01/19 12:57:54;;;;;;;51.00;27.95;;;5.80;99.90;;;;;;5069110;28;20044;-78
2022/01/19 13:00:26;;;;;;;51.45;28.02;;;5.80;99.90;;;;;;5047430;28;20055;-78
2022/01/19 13:02:52;;;;;;;50.92;28.95;;;5.80;99.90;;;;;;5070266;28;20045;-77
2022/01/19 13:05:20;;;;;;;48.58;26.70;;;5.90;99.90;;;;;;5068131;28;20036;-78
2022/01/19 13:07:55;;;;;;;53.10;28.42;;;5.90;99.90;;;;;;5066034;28;20181;-78
2022/01/19 13:10:46;;;;;;;47.90;26.77;;;5.90;99.90;;;;;;5053739;28;20044;-77
2022/01/19 13:13:29;;;;;;;47.08;28.08;;;6.00;99.90;;;;;;5069842;28;20500;-77
2022/01/19 13:16:00;;;;;;;51.92;27.38;;;5.90;99.90;;;;;;5055206;28;20044;-77
2022/01/19 13:18:44;;;;;;;49.42;28.58;;;5.90;99.90;;;;;;5071584;28;20115;-77
2022/01/19 13:21:13;;;;;;;52.33;27.20;;;5.90;99.90;;;;;;5067924;28;20063;-78
2022/01/19 13:23:55;;;;;;;48.63;28.10;;;5.80;99.90;;;;;;5067940;28;20043;-77
2022/01/19 13:26:22;;;;;;;45.70;26.65;;;5.80;99.90;;;;;;5065721;28;20111;-78
2022/01/19 13:28:48;;;;;;;49.63;27.20;;;5.80;99.90;;;;;;5052254;28;20511;-78
2022/01/19 13:31:18;;;;;;;47.08;26.73;;;5.80;99.90;;;;;;5038385;28;20136;-77
2022/01/19 13:34:01;;;;;;;48.72;27.02;;;5.80;99.90;;;;;;5050768;28;20036;-78
2022/01/19 13:36:34;;;;;;;45.45;26.10;;;5.80;99.90;;;;;;5057620;28;20044;-76
2022/01/19 13:39:02;;;;;;;48.00;25.40;;;5.80;99.90;;;;;;5043995;28;20051;-75
2022/01/19 13:41:27;;;;;;;48.70;25.63;;;5.80;99.90;;;;;;5065434;28;20048;-77
2022/01/19 13:43:58;;;;;;;49.47;27.67;;;5.80;99.90;;;;;;5062350;28;20102;-77
2022/01/19 13:46:28;;;;;;;49.13;25.88;;;5.80;99.90;;;;;;5070817;28;20476;-79
2022/01/19 13:49:03;;;;;;;46.10;25.20;;;5.80;99.90;;;;;;5089234;28;20049;-78
2022/01/19 13:51:32;;;;;;;46.03;24.35;;;5.80;99.90;;;;;;5065418;28;20040;-78
2022/01/19 13:54:03;;;;;;;49.80;24.75;;;5.80;99.90;;;;;;5067374;28;20040;-78
2022/01/19 13:56:41;;;;;;;44.17;24.85;;;5.70;99.90;;;;;;5070228;28;20170;-79
2022/01/19 13:59:18;;;;;;;45.28;25.10;;;5.70;99.90;;;;;;5057730;28;20043;-78
2022/01/19 14:01:50;;;;;;;42.67;23.50;;;5.70;99.90;;;;;;5057472;28;20095;-78
2022/01/19 14:04:17;;;;;;;39.65;23.00;;;5.70;99.90;;;;;;5060836;28;20036;-79
2022/01/19 14:06:44;;;;;;;40.90;22.55;;;5.70;99.90;;;;;;5043362;28;20040;-79
2022/01/19 14:09:17;;;;;;;41.90;21.73;;;5.60;99.90;;;;;;5049334;28;20040;-80
2022/01/19 14:11:46;;;;;;;36.08;20.10;;;5.60;99.90;;;;;;5043139;28;20043;-80
2022/01/19 14:14:31;;;;;;;40.40;20.98;;;5.60;99.90;;;;;;5048034;28;20036;-80
2022/01/19 14:16:57;;;;;;;42.35;21.10;;;5.60;99.90;;;;;;5055389;28;20044;-81
2022/01/19 14:19:47;;;;;;;41.17;19.67;;;5.60;99.90;;;;;;5044727;28;20039;-81